createdAt,value
2018-01-26T00:01:44.048Z,82.82
2018-01-26T00:04:11.594Z,82.93
2018-01-26T00:06:39.231Z,83.30
2018-01-26T00:09:06.844Z,83.48
2018-01-26T00:11:34.460Z,83.49
2018-01-26T00:14:02.046Z,83.32
2018-01-26T00:16:29.658Z,83.23
2018-01-26T00:18:57.310Z,83.03
2018-01-26T00:21:24.890Z,83.06
2018-01-26T00:23:52.438Z,83.00
2018-01-26T00:26:20.031Z,82.96
2018-01-26T00:28:47.602Z,83.04
2018-01-26T00:31:15.194Z,83.09
2018-01-26T00:33:42.745Z,83.15
2018-01-26T00:36:10.298Z,83.21
2018-01-26T00:38:37.896Z,83.36
2018-01-26T00:41:05.437Z,83.43
2018-01-26T00:43:33.767Z,83.57
2018-01-26T00:46:01.391Z,83.54
2018-01-26T00:48:29.003Z,83.61
2018-01-26T00:50:56.619Z,83.44
2018-01-26T00:53:24.162Z,83.49
2018-01-26T00:55:51.701Z,84.01
2018-01-26T00:58:19.315Z,83.96
2018-01-26T01:00:46.879Z,83.90
2018-01-26T01:03:14.545Z,83.73
2018-01-26T01:05:42.110Z,83.71
2018-01-26T01:08:09.666Z,83.29
2018-01-26T01:10:37.323Z,83.17
2018-01-26T01:13:04.870Z,82.95
2018-01-26T01:15:32.519Z,82.94
2018-01-26T01:18:00.132Z,82.98
2018-01-26T01:20:27.678Z,82.74
2018-01-26T01:22:55.244Z,82.61
2018-01-26T01:25:22.820Z,82.49
2018-01-26T01:27:50.592Z,82.52
2018-01-26T01:30:18.134Z,82.38
2018-01-26T01:32:45.730Z,82.24
2018-01-26T01:35:13.296Z,82.46
2018-01-26T01:37:40.842Z,82.66
2018-01-26T01:40:08.499Z,82.63
2018-01-26T01:42:36.707Z,82.55
2018-01-26T01:45:04.336Z,82.47
2018-01-26T01:47:31.971Z,82.57
2018-01-26T01:49:59.587Z,82.61
2018-01-26T01:52:27.163Z,82.63
2018-01-26T01:54:54.707Z,82.57
2018-01-26T01:57:22.306Z,82.70
2018-01-26T01:59:49.846Z,82.77
2018-01-26T02:02:17.401Z,82.84
2018-01-26T02:04:44.955Z,82.87
2018-01-26T02:07:12.502Z,83.06
2018-01-26T02:09:40.093Z,83.15
2018-01-26T02:12:07.639Z,83.31
2018-01-26T02:14:35.278Z,83.30
2018-01-26T02:17:02.850Z,83.42
2018-01-26T02:19:30.406Z,83.53
2018-01-26T02:21:58.031Z,83.43
2018-01-26T02:24:25.639Z,83.16
2018-01-26T02:26:53.251Z,83.07
2018-01-26T02:29:20.830Z,82.91
2018-01-26T02:31:48.435Z,82.88
2018-01-26T02:34:16.022Z,82.86
2018-01-26T02:36:43.574Z,82.95
2018-01-26T02:39:11.118Z,82.92
2018-01-26T02:41:39.590Z,83.21
2018-01-26T02:44:07.206Z,83.26
2018-01-26T02:46:34.823Z,83.12
2018-01-26T02:49:02.485Z,83.21
2018-01-26T02:51:30.096Z,83.10
2018-01-26T02:53:57.711Z,83.19
2018-01-26T02:56:25.251Z,83.06
2018-01-26T02:58:52.851Z,83.05
2018-01-26T03:01:20.459Z,82.83
2018-01-26T03:03:48.012Z,82.93
2018-01-26T03:06:15.562Z,82.93
2018-01-26T03:08:43.101Z,82.82
2018-01-26T03:11:10.686Z,83.01
2018-01-26T03:13:38.286Z,83.20
2018-01-26T03:16:05.827Z,83.32
2018-01-26T03:18:33.439Z,83.24
2018-01-26T03:21:00.988Z,83.31
2018-01-26T03:23:28.636Z,83.30
2018-01-26T03:25:56.186Z,83.15
2018-01-26T03:28:23.770Z,82.82
2018-01-26T03:30:51.392Z,82.64
2018-01-26T03:33:18.939Z,82.70
2018-01-26T03:35:46.595Z,82.58
2018-01-26T03:38:14.198Z,82.69
2018-01-26T03:40:41.759Z,82.71
2018-01-26T03:43:09.389Z,82.76
2018-01-26T03:45:36.989Z,82.70
2018-01-26T03:48:04.635Z,82.71
2018-01-26T03:50:32.240Z,82.46
2018-01-26T03:52:59.843Z,82.38
2018-01-26T03:55:27.394Z,82.31
2018-01-26T03:57:54.941Z,82.33
2018-01-26T04:00:22.539Z,82.44
2018-01-26T04:02:50.082Z,82.40
2018-01-26T04:05:17.684Z,82.62
2018-01-26T04:07:45.232Z,82.50
2018-01-26T04:10:12.773Z,82.62
2018-01-26T04:12:40.423Z,82.89
2018-01-26T04:15:08.006Z,83.00
2018-01-26T04:17:35.556Z,83.07
2018-01-26T04:20:03.154Z,82.98
2018-01-26T04:22:30.702Z,82.87
2018-01-26T04:24:58.290Z,83.07
2018-01-26T04:27:25.889Z,83.31
2018-01-26T04:29:53.491Z,83.27
2018-01-26T04:32:21.058Z,83.26
2018-01-26T04:34:48.594Z,83.40
2018-01-26T04:37:16.182Z,83.41
2018-01-26T04:39:43.781Z,83.31
2018-01-26T04:42:11.322Z,83.03
2018-01-26T04:44:38.879Z,82.94
2018-01-26T04:47:06.488Z,82.76
2018-01-26T04:49:34.169Z,82.58
2018-01-26T04:52:01.711Z,82.29
2018-01-26T04:54:29.313Z,82.46
2018-01-26T04:56:56.862Z,82.42
2018-01-26T04:59:24.459Z,82.38
2018-01-26T05:01:52.050Z,82.35
2018-01-26T05:04:19.666Z,82.48
2018-01-26T05:06:47.208Z,82.77
2018-01-26T05:09:14.823Z,82.82
2018-01-26T05:11:42.368Z,82.95
2018-01-26T05:14:09.955Z,83.00
2018-01-26T05:16:37.502Z,83.15
2018-01-26T05:19:05.113Z,83.12
2018-01-26T05:21:32.666Z,83.09
2018-01-26T05:24:00.212Z,82.94
2018-01-26T05:26:27.884Z,82.93
2018-01-26T05:28:55.427Z,82.97
2018-01-26T05:31:22.970Z,83.22
2018-01-26T05:33:50.580Z,83.07
2018-01-26T05:36:18.123Z,83.26
2018-01-26T05:38:45.761Z,83.64
2018-01-26T05:41:13.303Z,84.02
2018-01-26T05:43:40.850Z,84.41
2018-01-26T05:46:08.409Z,84.67
2018-01-26T05:48:36.010Z,84.92
2018-01-26T05:51:03.655Z,85.11
2018-01-26T05:53:31.190Z,85.11
2018-01-26T05:55:58.852Z,85.15
2018-01-26T05:58:26.439Z,85.34
2018-01-26T06:00:53.986Z,85.32
2018-01-26T06:03:21.599Z,85.12
2018-01-26T06:05:49.142Z,84.69
2018-01-26T06:08:16.685Z,84.00
2018-01-26T06:10:44.236Z,83.53
2018-01-26T06:13:11.826Z,82.81
2018-01-26T06:15:39.472Z,82.26
2018-01-26T06:18:07.043Z,81.96
2018-01-26T06:20:34.592Z,81.68
2018-01-26T06:23:02.200Z,81.38
2018-01-26T06:25:29.756Z,80.85
2018-01-26T06:27:57.352Z,80.60
2018-01-26T06:30:24.999Z,80.38
2018-01-26T06:32:52.600Z,80.22
2018-01-26T06:35:20.148Z,80.01
2018-01-26T06:37:47.695Z,79.91
2018-01-26T06:40:15.242Z,79.57
2018-01-26T06:42:42.791Z,79.46
2018-01-26T06:45:10.351Z,79.28
2018-01-26T06:47:37.898Z,78.93
2018-01-26T06:50:05.478Z,78.68
2018-01-26T06:52:33.084Z,79.06
2018-01-26T06:55:00.634Z,78.80
2018-01-26T06:57:28.186Z,79.29
2018-01-26T06:59:55.734Z,79.64
2018-01-26T07:02:23.322Z,79.01
2018-01-26T07:04:50.864Z,78.60
2018-01-26T07:07:18.403Z,78.08
2018-01-26T07:09:45.986Z,78.02
2018-01-26T07:12:13.533Z,78.38
2018-01-26T07:14:41.083Z,78.16
2018-01-26T07:17:08.682Z,77.88
2018-01-26T07:19:36.326Z,77.72
2018-01-26T07:22:03.926Z,77.76
2018-01-26T07:24:31.470Z,77.57
2018-01-26T07:26:59.025Z,77.43
2018-01-26T07:29:26.637Z,77.05
2018-01-26T07:31:54.246Z,76.99
2018-01-26T07:34:21.848Z,76.89
2018-01-26T07:36:49.436Z,77.17
2018-01-26T07:39:16.990Z,77.08
2018-01-26T07:41:44.530Z,75.86
2018-01-26T07:44:12.086Z,75.96
2018-01-26T07:46:39.674Z,76.40
2018-01-26T07:49:07.230Z,75.81
2018-01-26T07:51:34.832Z,75.51
2018-01-26T07:54:02.452Z,75.02
2018-01-26T07:56:30.159Z,74.15
2018-01-26T07:58:57.703Z,73.72
2018-01-26T08:01:25.259Z,73.80
2018-01-26T08:03:52.803Z,73.24
2018-01-26T08:06:20.569Z,72.89
2018-01-26T08:08:48.012Z,73.46
2018-01-26T08:11:15.699Z,72.32
2018-01-26T08:13:43.239Z,72.21
2018-01-26T08:16:10.842Z,71.13
2018-01-26T08:18:38.390Z,71.09
2018-01-26T08:21:05.930Z,70.75
2018-01-26T08:23:33.483Z,70.20
2018-01-26T08:26:01.024Z,69.78
2018-01-26T08:28:28.677Z,69.26
2018-01-26T08:30:56.219Z,68.97
2018-01-26T08:33:23.822Z,68.38
2018-01-26T08:35:51.372Z,67.91
2018-01-26T08:38:18.974Z,68.13
2018-01-26T08:40:46.523Z,67.98
2018-01-26T08:43:14.066Z,67.33
2018-01-26T08:45:41.655Z,67.32
2018-01-26T08:48:09.205Z,66.31
2018-01-26T08:50:36.747Z,66.59
2018-01-26T08:53:04.294Z,65.29
2018-01-26T08:55:31.883Z,65.36
2018-01-26T08:57:59.431Z,65.26
2018-01-26T09:00:27.013Z,65.06
2018-01-26T09:02:54.608Z,64.82
2018-01-26T09:05:22.210Z,64.99
2018-01-26T09:07:49.819Z,64.77
2018-01-26T09:10:17.417Z,63.44
2018-01-26T09:12:45.019Z,62.32
2018-01-26T09:15:12.636Z,61.98
2018-01-26T09:17:40.174Z,61.51
2018-01-26T09:20:07.712Z,60.59
2018-01-26T09:22:35.267Z,60.19
2018-01-26T09:25:02.811Z,60.67
2018-01-26T09:27:30.395Z,60.03
2018-01-26T09:29:58.047Z,57.89
2018-01-26T09:32:25.643Z,56.98
2018-01-26T09:34:53.199Z,55.95
2018-01-26T09:37:20.844Z,56.04
2018-01-26T09:39:48.470Z,55.29
2018-01-26T09:42:16.068Z,55.35
2018-01-26T09:44:43.616Z,54.09
2018-01-26T09:47:11.175Z,54.23
2018-01-26T09:49:38.724Z,52.07
2018-01-26T09:52:06.362Z,51.74
2018-01-26T09:54:33.902Z,52.17
2018-01-26T09:57:01.452Z,52.24
2018-01-26T09:59:29.042Z,51.62
2018-01-26T10:01:56.590Z,51.96
2018-01-26T10:04:24.240Z,51.33
2018-01-26T10:06:51.838Z,50.15
2018-01-26T10:09:19.435Z,50.94
2018-01-26T10:11:46.983Z,50.95
2018-01-26T10:14:14.517Z,49.46
2018-01-26T10:16:42.110Z,48.53
2018-01-26T10:19:10.296Z,49.26
2018-01-26T10:21:38.438Z,48.49
2018-01-26T10:24:06.001Z,47.94
2018-01-26T10:26:34.190Z,48.12
2018-01-26T10:29:01.796Z,47.72
2018-01-26T10:31:29.936Z,46.72
2018-01-26T10:33:58.290Z,46.80
2018-01-26T10:36:25.898Z,46.56
2018-01-26T10:38:54.045Z,46.09
2018-01-26T10:41:21.632Z,43.41
2018-01-26T10:43:49.174Z,43.41
2018-01-26T10:46:16.770Z,42.93
2018-01-26T10:48:44.314Z,42.74
2018-01-26T10:51:11.855Z,42.87
2018-01-26T10:53:39.499Z,45.36
2018-01-26T10:56:07.037Z,44.53
2018-01-26T10:58:35.324Z,43.10
2018-01-26T11:01:02.944Z,42.47
2018-01-26T11:03:30.493Z,43.17
2018-01-26T11:05:58.119Z,41.44
2018-01-26T11:08:25.678Z,39.64
2018-01-26T11:10:53.230Z,38.61
2018-01-26T11:13:21.583Z,38.67
2018-01-26T11:15:49.144Z,39.25
2018-01-26T11:18:16.807Z,38.39
2018-01-26T11:20:44.432Z,38.72
2018-01-26T11:23:11.990Z,37.71
2018-01-26T11:25:39.554Z,37.71
2018-01-26T11:28:07.163Z,37.47
2018-01-26T11:30:34.814Z,37.96
2018-01-26T11:33:02.371Z,36.94
2018-01-26T11:35:29.984Z,37.02
2018-01-26T11:37:58.199Z,37.07
2018-01-26T11:40:25.759Z,37.38
2018-01-26T11:42:53.389Z,37.22
2018-01-26T11:45:21.010Z,37.07
